createdAt,value
2019-03-17T00:01:18.056Z,50.05
2019-03-17T00:06:39.229Z,50.48
2019-03-17T00:12:00.421Z,50.37
2019-03-17T00:17:21.568Z,49.44
2019-03-17T00:22:42.739Z,49.54
2019-03-17T00:28:03.918Z,49.04
2019-03-17T00:33:25.141Z,49.31
2019-03-17T00:38:46.311Z,49.44
2019-03-17T00:44:07.527Z,49.81
2019-03-17T00:49:28.965Z,50.21
2019-03-17T00:54:49.871Z,50.93
2019-03-17T01:00:11.896Z,51.73
2019-03-17T01:05:32.823Z,52.30
2019-03-17T01:10:54.225Z,53.06
2019-03-17T01:16:15.225Z,53.09
2019-03-17T01:21:36.368Z,53.52
2019-03-17T01:26:57.670Z,53.91
2019-03-17T01:32:18.594Z,54.30
2019-03-17T01:37:39.826Z,54.68
2019-03-17T01:43:01.031Z,55.63
2019-03-17T01:48:22.284Z,55.97
2019-03-17T01:53:43.302Z,56.16
2019-03-17T01:59:04.741Z,56.35
2019-03-17T02:04:25.676Z,57.21
2019-03-17T02:09:46.926Z,58.32
2019-03-17T02:15:08.271Z,58.63
2019-03-17T02:20:29.361Z,58.44
2019-03-17T02:25:50.740Z,58.66
2019-03-17T02:31:12.109Z,58.70
2019-03-17T02:36:33.784Z,58.94
2019-03-17T02:41:54.935Z,58.92
2019-03-17T02:47:16.220Z,58.81
2019-03-17T02:52:37.595Z,59.12
2019-03-17T02:57:58.559Z,59.02
2019-03-17T03:03:19.877Z,58.16
2019-03-17T03:08:41.154Z,55.95
2019-03-17T03:14:02.760Z,54.80
2019-03-17T03:19:23.581Z,54.25
2019-03-17T03:24:44.835Z,54.47
2019-03-17T03:30:06.836Z,55.82
2019-03-17T03:35:27.816Z,56.85
2019-03-17T03:40:48.979Z,56.81
2019-03-17T03:46:10.149Z,56.52
2019-03-17T03:51:31.643Z,56.49
2019-03-17T03:56:52.977Z,56.33
2019-03-17T04:02:14.395Z,55.11
2019-03-17T04:07:35.511Z,54.11
2019-03-17T04:12:56.554Z,53.63
2019-03-17T04:18:17.765Z,53.04
2019-03-17T04:23:38.982Z,53.40
2019-03-17T04:29:00.233Z,53.53
2019-03-17T04:34:21.397Z,52.92
2019-03-17T04:39:42.367Z,52.55
2019-03-17T04:45:03.809Z,52.58
2019-03-17T04:50:25.150Z,52.57
2019-03-17T04:55:46.266Z,52.84
2019-03-17T05:01:07.516Z,52.82
2019-03-17T05:06:28.525Z,52.58
2019-03-17T05:11:49.691Z,52.00
2019-03-17T05:17:11.177Z,51.80
2019-03-17T05:22:32.433Z,51.34
2019-03-17T05:27:53.782Z,50.87
2019-03-17T05:33:14.694Z,50.51
2019-03-17T05:38:35.817Z,50.64
2019-03-17T05:43:56.995Z,49.96
2019-03-17T05:49:18.246Z,49.79
2019-03-17T05:54:39.534Z,49.71
2019-03-17T06:00:00.606Z,49.68
2019-03-17T06:05:21.951Z,48.80
2019-03-17T06:10:43.045Z,48.37
2019-03-17T06:16:04.451Z,47.55
2019-03-17T06:21:25.425Z,46.78
2019-03-17T06:26:46.585Z,46.86
2019-03-17T06:32:07.855Z,47.67
2019-03-17T06:37:31.203Z,47.25
2019-03-17T06:42:52.017Z,46.97
2019-03-17T06:48:12.987Z,47.12
2019-03-17T06:53:34.387Z,46.70
2019-03-17T06:58:55.625Z,45.98
2019-03-17T07:04:16.913Z,45.89
2019-03-17T07:09:38.410Z,45.21
2019-03-17T07:14:59.934Z,45.58
2019-03-17T07:20:21.187Z,45.73
2019-03-17T07:25:42.338Z,44.99
2019-03-17T07:31:03.872Z,44.47
2019-03-17T07:36:24.819Z,46.38
2019-03-17T07:41:46.050Z,49.20
2019-03-17T07:47:07.168Z,50.04
2019-03-17T07:52:28.549Z,49.98
2019-03-17T07:57:49.744Z,49.46
2019-03-17T08:03:10.929Z,49.43
2019-03-17T08:08:32.212Z,49.04
2019-03-17T08:13:53.565Z,47.59
2019-03-17T08:19:14.771Z,46.42
2019-03-17T08:24:36.006Z,45.08
2019-03-17T08:29:57.219Z,45.05
2019-03-17T08:35:17.988Z,43.91
2019-03-17T08:40:39.173Z,43.12
2019-03-17T08:46:00.641Z,42.71
2019-03-17T08:51:21.764Z,41.13
2019-03-17T08:56:42.898Z,40.25
2019-03-17T09:02:03.867Z,39.19
2019-03-17T09:07:27.734Z,40.83
2019-03-17T09:12:48.313Z,41.20
2019-03-17T09:18:09.303Z,42.28
2019-03-17T09:23:30.686Z,42.80
2019-03-17T09:28:51.848Z,42.90
2019-03-17T09:34:13.267Z,42.74
2019-03-17T09:39:34.410Z,43.28
2019-03-17T09:44:55.676Z,43.36
2019-03-17T09:50:16.551Z,42.80
2019-03-17T09:55:37.867Z,42.46
2019-03-17T10:00:59.176Z,42.17
2019-03-17T10:06:20.215Z,41.55
2019-03-17T10:11:41.317Z,40.59
2019-03-17T10:17:02.877Z,40.81
2019-03-17T10:22:24.027Z,40.53
2019-03-17T10:27:45.235Z,39.33
2019-03-17T10:33:06.557Z,38.38
2019-03-17T10:38:27.637Z,38.38
2019-03-17T10:43:48.804Z,38.27
2019-03-17T10:49:10.158Z,38.11
2019-03-17T10:54:31.255Z,37.68
2019-03-17T10:59:52.740Z,37.68
2019-03-17T11:05:14.181Z,38.32
2019-03-17T11:10:35.395Z,38.32
2019-03-17T11:15:56.587Z,37.73
2019-03-17T11:21:17.982Z,37.66
2019-03-17T11:26:38.918Z,37.88
2019-03-17T11:31:59.983Z,36.63
2019-03-17T11:37:23.548Z,36.63
2019-03-17T11:42:44.612Z,36.28
2019-03-17T11:48:05.803Z,36.28
2019-03-17T11:53:27.092Z,35.33
2019-03-17T11:58:48.368Z,34.49
2019-03-17T12:04:09.586Z,34.54
2019-03-17T12:09:30.917Z,35.33
2019-03-17T12:14:52.479Z,34.12
2019-03-17T12:20:13.805Z,33.92
2019-03-17T12:25:34.838Z,34.49
2019-03-17T12:30:56.090Z,34.48
2019-03-17T12:36:19.011Z,33.87
2019-03-17T12:41:40.499Z,34.28
2019-03-17T12:47:01.702Z,32.73
2019-03-17T12:52:23.124Z,32.70
2019-03-17T12:57:44.071Z,32.46
2019-03-17T13:03:05.254Z,32.61
2019-03-17T13:08:26.415Z,32.49
2019-03-17T13:13:47.487Z,32.89
2019-03-17T13:19:08.889Z,32.67
2019-03-17T13:24:30.403Z,33.00
2019-03-17T13:29:52.040Z,32.90
2019-03-17T13:35:13.311Z,33.03
2019-03-17T13:40:34.590Z,32.82
2019-03-17T13:45:55.630Z,31.75
2019-03-17T13:51:16.852Z,31.74
2019-03-17T13:56:37.916Z,31.93
2019-03-17T14:01:59.163Z,32.38
2019-03-17T14:07:20.739Z,31.80
2019-03-17T14:12:42.486Z,32.29
2019-03-17T14:18:03.641Z,32.87
2019-03-17T14:23:24.817Z,33.02
2019-03-17T14:28:46.174Z,33.12
2019-03-17T14:34:07.124Z,33.29
2019-03-17T14:39:28.358Z,32.78
2019-03-17T14:44:49.864Z,32.87
2019-03-17T14:50:13.494Z,33.61
2019-03-17T14:55:35.757Z,33.76
2019-03-17T15:00:57.205Z,33.41
2019-03-17T15:06:18.286Z,33.90
2019-03-17T15:11:39.721Z,33.91
2019-03-17T15:17:01.170Z,33.90
2019-03-17T15:22:22.654Z,34.40
2019-03-17T15:27:43.578Z,34.77
2019-03-17T15:33:04.849Z,34.76
2019-03-17T15:38:25.844Z,34.89
2019-03-17T15:43:47.099Z,35.34
2019-03-17T15:49:08.761Z,35.53
2019-03-17T15:54:29.911Z,35.52
2019-03-17T15:59:51.279Z,36.18
2019-03-17T16:05:12.579Z,36.64
2019-03-17T16:10:34.094Z,37.29
2019-03-17T16:15:55.246Z,39.48
2019-03-17T16:21:16.445Z,39.57
2019-03-17T16:26:37.809Z,40.15
2019-03-17T16:31:58.991Z,41.08
2019-03-17T16:37:20.157Z,42.43
2019-03-17T16:42:41.386Z,43.41
2019-03-17T16:48:02.651Z,44.45
2019-03-17T16:53:23.842Z,45.22
2019-03-17T16:58:45.034Z,45.89
2019-03-17T17:04:06.052Z,45.58
2019-03-17T17:09:27.585Z,45.54
2019-03-17T17:14:49.150Z,47.27
2019-03-17T17:20:12.717Z,47.99
2019-03-17T17:25:33.791Z,46.76
2019-03-17T17:30:54.918Z,46.79
2019-03-17T17:36:18.428Z,47.48
2019-03-17T17:41:39.809Z,47.50
2019-03-17T17:47:05.238Z,48.15
2019-03-17T17:52:28.102Z,48.96
2019-03-17T17:57:49.357Z,49.27
2019-03-17T18:03:10.453Z,50.33
2019-03-17T18:08:31.681Z,50.84
2019-03-17T18:13:52.926Z,51.43
2019-03-17T18:19:14.047Z,52.03
2019-03-17T18:24:35.286Z,52.88
2019-03-17T18:29:56.512Z,52.50
2019-03-17T18:35:17.820Z,52.64
2019-03-17T18:40:39.193Z,53.41
2019-03-17T18:46:00.621Z,54.44
2019-03-17T18:51:21.952Z,54.53
2019-03-17T18:56:43.439Z,54.54
2019-03-17T19:02:04.340Z,55.48
2019-03-17T19:07:25.630Z,55.90
2019-03-17T19:12:47.476Z,56.36
2019-03-17T19:18:08.666Z,57.45
2019-03-17T19:23:30.002Z,57.95
2019-03-17T19:28:51.198Z,57.81
2019-03-17T19:34:12.510Z,58.20
2019-03-17T19:39:34.189Z,57.96
2019-03-17T19:44:55.338Z,58.63
2019-03-17T19:50:16.664Z,58.82
2019-03-17T19:55:37.850Z,59.51
2019-03-17T20:00:59.206Z,60.06
2019-03-17T20:06:20.787Z,60.75
2019-03-17T20:11:41.965Z,60.53
2019-03-17T20:17:02.820Z,60.73
2019-03-17T20:22:24.040Z,60.98
2019-03-17T20:27:45.532Z,61.36
2019-03-17T20:33:06.875Z,61.31
2019-03-17T20:38:27.823Z,61.59
2019-03-17T20:43:49.018Z,61.85
2019-03-17T20:49:10.180Z,62.17
2019-03-17T20:54:31.265Z,62.04
2019-03-17T20:59:52.612Z,62.42
2019-03-17T21:05:13.673Z,63.01
2019-03-17T21:10:34.635Z,62.84
2019-03-17T21:15:55.454Z,63.33
2019-03-17T21:21:16.523Z,63.46
2019-03-17T21:26:37.724Z,63.53
2019-03-17T21:31:58.885Z,63.62
2019-03-17T21:37:20.136Z,63.81
2019-03-17T21:42:41.304Z,64.62
2019-03-17T21:48:02.589Z,64.58
2019-03-17T21:53:23.787Z,64.67
2019-03-17T21:58:45.120Z,64.84
2019-03-17T22:04:06.013Z,65.65
2019-03-17T22:09:27.284Z,65.68
2019-03-17T22:14:48.212Z,65.85
2019-03-17T22:20:09.915Z,66.77
2019-03-17T22:25:31.060Z,67.13
2019-03-17T22:30:53.342Z,67.29
2019-03-17T22:36:14.474Z,67.72
2019-03-17T22:41:35.722Z,67.72
2019-03-17T22:46:56.998Z,67.90
2019-03-17T22:52:18.415Z,67.75
2019-03-17T22:57:39.519Z,67.79
2019-03-17T23:03:00.846Z,67.79
2019-03-17T23:08:23.432Z,68.40
2019-03-17T23:13:44.951Z,68.48
2019-03-17T23:19:06.233Z,69.07
2019-03-17T23:24:27.366Z,69.17
2019-03-17T23:29:48.852Z,69.73
2019-03-17T23:35:09.926Z,70.43
2019-03-17T23:40:31.209Z,70.79
2019-03-17T23:45:52.448Z,70.50
2019-03-17T23:51:13.703Z,70.43
2019-03-17T23:56:34.814Z,71.01
